createdAt,value
2024-03-01T00:01:32.654Z,7.31
2024-03-01T00:04:00.943Z,7.34
2024-03-01T00:06:29.199Z,7.36
2024-03-01T00:08:57.410Z,7.38
2024-03-01T00:11:25.792Z,7.40
2024-03-01T00:13:54.021Z,7.41
2024-03-01T00:16:22.338Z,7.42
2024-03-01T00:18:50.596Z,7.43
2024-03-01T00:21:18.760Z,7.45
2024-03-01T00:23:47.011Z,7.46
2024-03-01T00:26:15.435Z,7.47
2024-03-01T00:28:43.562Z,7.47
2024-03-01T00:31:11.956Z,7.48
2024-03-01T00:33:40.215Z,7.49
2024-03-01T00:36:08.391Z,7.48
2024-03-01T00:38:36.764Z,7.47
2024-03-01T00:41:05.243Z,7.46
2024-03-01T00:43:35.008Z,7.45
2024-03-01T00:46:03.563Z,7.46
2024-03-01T00:48:33.652Z,7.45
2024-03-01T00:51:01.832Z,7.44
2024-03-01T00:53:30.219Z,7.45
2024-03-01T00:55:58.681Z,7.44
2024-03-01T00:58:27.214Z,7.43
2024-03-01T01:00:55.676Z,7.42
2024-03-01T01:03:24.150Z,7.41
2024-03-01T01:05:52.499Z,7.41
2024-03-01T01:08:20.774Z,7.41
2024-03-01T01:10:49.001Z,7.41
2024-03-01T01:13:17.245Z,7.41
2024-03-01T01:15:45.496Z,7.41
2024-03-01T01:18:15.613Z,7.40
2024-03-01T01:20:45.113Z,7.38
2024-03-01T01:23:13.291Z,7.37
2024-03-01T01:25:43.565Z,7.36
2024-03-01T01:28:11.810Z,7.34
2024-03-01T01:30:40.059Z,7.32
2024-03-01T01:33:08.434Z,7.29
2024-03-01T01:35:36.927Z,7.25
2024-03-01T01:38:05.196Z,7.21
2024-03-01T01:40:33.499Z,7.19
2024-03-01T01:43:04.072Z,7.17
2024-03-01T01:45:33.818Z,7.15
2024-03-01T01:48:04.045Z,7.12
2024-03-01T01:50:33.632Z,7.08
2024-03-01T01:53:10.057Z,7.05
2024-03-01T01:55:45.651Z,7.02
2024-03-01T01:58:14.674Z,6.99
2024-03-01T02:00:45.295Z,6.96
2024-03-01T02:03:14.162Z,6.92
2024-03-01T02:05:42.841Z,6.90
2024-03-01T02:08:11.019Z,6.87
2024-03-01T02:10:39.276Z,6.86
2024-03-01T02:13:21.830Z,6.85
2024-03-01T02:15:52.467Z,6.83
2024-03-01T02:18:20.733Z,6.79
2024-03-01T02:21:04.026Z,6.76
2024-03-01T02:23:32.508Z,6.73
2024-03-01T02:26:00.688Z,6.68
2024-03-01T02:28:29.147Z,6.63
2024-03-01T02:30:57.701Z,6.61
2024-03-01T02:33:26.331Z,6.58
2024-03-01T02:35:54.637Z,6.57
2024-03-01T02:38:22.768Z,6.55
2024-03-01T02:40:50.945Z,6.53
2024-03-01T02:43:19.144Z,6.49
2024-03-01T02:45:47.388Z,6.45
2024-03-01T02:48:15.704Z,6.43
2024-03-01T02:50:43.941Z,6.41
2024-03-01T02:53:12.113Z,6.40
2024-03-01T02:55:40.332Z,6.40
2024-03-01T02:58:08.593Z,6.39
2024-03-01T03:00:36.882Z,6.39
2024-03-01T03:03:05.316Z,6.38
2024-03-01T03:05:33.690Z,6.36
2024-03-01T03:08:02.001Z,6.35
2024-03-01T03:10:30.277Z,6.33
2024-03-01T03:12:58.648Z,6.27
2024-03-01T03:15:27.412Z,6.24
2024-03-01T03:17:55.529Z,6.20
2024-03-01T03:20:23.755Z,6.18
2024-03-01T03:22:51.821Z,6.14
2024-03-01T03:25:19.930Z,6.10
2024-03-01T03:27:48.064Z,6.07
2024-03-01T03:30:16.880Z,6.04
2024-03-01T03:32:45.341Z,5.95
2024-03-01T03:35:13.614Z,5.89
2024-03-01T03:37:41.803Z,5.85
2024-03-01T03:40:16.969Z,5.82
2024-03-01T03:42:45.719Z,5.78
2024-03-01T03:45:13.875Z,5.72
2024-03-01T03:47:42.067Z,5.69
2024-03-01T03:50:10.934Z,5.66
2024-03-01T03:52:39.219Z,5.65
2024-03-01T03:55:08.164Z,5.63
2024-03-01T03:57:36.860Z,5.60
2024-03-01T04:00:11.117Z,5.58
2024-03-01T04:02:39.892Z,5.57
2024-03-01T04:05:08.814Z,5.59
2024-03-01T04:07:37.789Z,5.62
2024-03-01T04:10:10.813Z,5.66
2024-03-01T04:12:39.033Z,5.69
2024-03-01T04:15:07.783Z,5.70
2024-03-01T04:17:36.386Z,5.72
2024-03-01T04:20:08.139Z,5.78
2024-03-01T04:22:36.475Z,5.85
2024-03-01T04:25:07.214Z,5.91
2024-03-01T04:27:35.846Z,5.93
2024-03-01T04:30:04.578Z,5.94
2024-03-01T04:32:32.844Z,5.95
2024-03-01T04:35:00.973Z,5.97
2024-03-01T04:37:29.561Z,5.99
2024-03-01T04:39:57.785Z,6.01
2024-03-01T04:42:26.108Z,6.02
2024-03-01T04:44:54.387Z,6.04
2024-03-01T04:47:22.453Z,6.07
2024-03-01T04:49:50.526Z,6.09
2024-03-01T04:52:18.831Z,6.10
2024-03-01T04:54:48.842Z,6.12
2024-03-01T04:57:17.707Z,6.15
2024-03-01T04:59:45.929Z,6.17
2024-03-01T05:02:14.182Z,6.19
2024-03-01T05:04:44.610Z,6.21
2024-03-01T05:07:13.419Z,6.21
2024-03-01T05:09:44.441Z,6.22
2024-03-01T05:12:15.016Z,6.22
2024-03-01T05:14:43.414Z,6.23
2024-03-01T05:17:13.221Z,6.23
2024-03-01T05:19:42.517Z,6.21
2024-03-01T05:22:14.302Z,6.19
2024-03-01T05:24:43.120Z,6.17
2024-03-01T05:27:14.863Z,6.15
2024-03-01T05:29:43.717Z,6.11
2024-03-01T05:32:12.057Z,6.09
2024-03-01T05:34:40.818Z,6.04
2024-03-01T05:37:09.184Z,5.96
2024-03-01T05:39:37.526Z,5.87
2024-03-01T05:42:07.632Z,5.79
2024-03-01T05:44:35.921Z,5.73
2024-03-01T05:47:04.708Z,5.71
2024-03-01T05:49:32.924Z,5.71
2024-03-01T05:52:01.097Z,5.69
2024-03-01T05:54:31.024Z,5.64
2024-03-01T05:56:59.652Z,5.59
2024-03-01T05:59:28.118Z,5.57
2024-03-01T06:01:56.941Z,5.53
2024-03-01T06:04:25.349Z,5.49
2024-03-01T06:06:53.829Z,5.47
2024-03-01T06:09:22.668Z,5.43
2024-03-01T06:11:50.839Z,5.42
2024-03-01T06:14:21.886Z,5.45
2024-03-01T06:16:50.456Z,5.50
2024-03-01T06:19:18.854Z,5.51
2024-03-01T06:21:47.382Z,5.56
2024-03-01T06:24:15.589Z,5.64
2024-03-01T06:26:43.761Z,5.74
2024-03-01T06:29:11.935Z,5.86
2024-03-01T06:31:40.213Z,5.95
2024-03-01T06:34:08.654Z,6.04
2024-03-01T06:36:37.189Z,6.13
2024-03-01T06:39:05.448Z,6.22
2024-03-01T06:41:33.751Z,6.31
2024-03-01T06:44:01.787Z,6.40
2024-03-01T06:46:31.220Z,6.49
2024-03-01T06:49:02.015Z,6.58
2024-03-01T06:51:32.976Z,6.66
2024-03-01T06:54:01.240Z,6.74
2024-03-01T06:56:29.424Z,6.81
2024-03-01T06:58:58.095Z,6.89
2024-03-01T07:01:27.166Z,6.97
2024-03-01T07:03:56.713Z,7.04
2024-03-01T07:06:25.179Z,7.11
2024-03-01T07:08:53.358Z,7.18
2024-03-01T07:11:23.220Z,7.25
2024-03-01T07:13:51.431Z,7.32
2024-03-01T07:16:19.669Z,7.39
2024-03-01T07:18:47.887Z,7.46
2024-03-01T07:21:16.164Z,7.53
2024-03-01T07:23:44.530Z,7.60
2024-03-01T07:26:12.654Z,7.66
2024-03-01T07:28:40.821Z,7.72
2024-03-01T07:31:09.095Z,7.77
2024-03-01T07:33:37.328Z,7.84
2024-03-01T07:36:06.722Z,7.89
2024-03-01T07:38:34.895Z,7.94
2024-03-01T07:41:03.082Z,7.99
2024-03-01T07:43:32.005Z,8.04
2024-03-01T07:46:00.908Z,8.10
2024-03-01T07:48:29.207Z,8.16
2024-03-01T07:50:57.642Z,8.21
2024-03-01T07:53:25.874Z,8.27
2024-03-01T07:55:54.304Z,8.33
2024-03-01T07:58:23.013Z,8.37
2024-03-01T08:00:51.553Z,8.43
2024-03-01T08:03:19.706Z,8.47
2024-03-01T08:05:48.393Z,8.51
2024-03-01T08:08:29.593Z,8.57
2024-03-01T08:10:57.759Z,8.62
2024-03-01T08:13:26.030Z,8.67
2024-03-01T08:15:54.927Z,8.72
2024-03-01T08:18:25.836Z,8.77
2024-03-01T08:21:02.168Z,8.82
2024-03-01T08:23:41.128Z,8.87
2024-03-01T08:26:19.463Z,8.95
2024-03-01T08:28:49.543Z,9.04
2024-03-01T08:31:23.949Z,9.12
2024-03-01T08:34:25.778Z,9.23
2024-03-01T08:36:54.943Z,9.34
2024-03-01T08:39:24.739Z,9.45
2024-03-01T08:41:55.704Z,9.55
2024-03-01T08:44:45.960Z,9.66
2024-03-01T08:47:39.034Z,9.81
2024-03-01T08:50:39.415Z,9.94
2024-03-01T08:53:43.671Z,10.09
2024-03-01T08:56:22.048Z,10.23
2024-03-01T08:58:51.172Z,10.35
2024-03-01T09:01:41.560Z,10.46
2024-03-01T09:04:14.672Z,10.59
2024-03-01T09:06:43.292Z,10.70
2024-03-01T09:09:22.720Z,10.82
2024-03-01T09:11:53.608Z,10.96
2024-03-01T09:14:30.833Z,11.07
2024-03-01T09:17:02.116Z,11.20
2024-03-01T09:19:39.699Z,11.30
2024-03-01T09:22:08.052Z,11.42
2024-03-01T09:24:40.483Z,11.50
2024-03-01T09:27:17.774Z,11.59
2024-03-01T09:29:48.695Z,11.67
2024-03-01T09:32:17.695Z,11.77
2024-03-01T09:34:47.220Z,11.86
2024-03-01T09:37:21.657Z,11.93
2024-03-01T09:39:50.097Z,12.00
2024-03-01T09:42:33.837Z,12.10
2024-03-01T09:45:30.168Z,12.21
2024-03-01T09:48:23.526Z,12.31
2024-03-01T09:51:24.062Z,12.36
2024-03-01T09:54:30.239Z,12.45
2024-03-01T09:57:07.714Z,12.56
2024-03-01T09:59:48.478Z,12.63
2024-03-01T10:02:52.082Z,12.73
2024-03-01T10:05:41.823Z,12.82
2024-03-01T10:08:39.037Z,12.92
2024-03-01T10:11:45.195Z,12.98
2024-03-01T10:14:32.799Z,13.01
2024-03-01T10:17:37.526Z,13.04
2024-03-01T10:20:12.870Z,13.04
2024-03-01T10:22:51.363Z,13.01
2024-03-01T10:25:45.531Z,13.01
2024-03-01T10:28:29.777Z,13.04
2024-03-01T10:31:10.815Z,13.07
2024-03-01T10:33:59.615Z,13.11
2024-03-01T10:36:45.349Z,13.16
2024-03-01T10:39:16.822Z,13.22
2024-03-01T10:42:30.017Z,13.29
2024-03-01T10:45:21.744Z,13.33
2024-03-01T10:47:52.034Z,13.37
2024-03-01T10:50:21.711Z,13.36
2024-03-01T10:52:59.257Z,13.38
2024-03-01T10:55:33.721Z,13.36
2024-03-01T10:58:27.365Z,13.40
2024-03-01T11:01:00.555Z,13.44
2024-03-01T11:03:42.649Z,13.48
2024-03-01T11:06:18.701Z,13.53
2024-03-01T11:08:55.139Z,13.55
2024-03-01T11:11:31.768Z,13.59
2024-03-01T11:14:00.928Z,13.63
2024-03-01T11:16:33.518Z,13.65
2024-03-01T11:19:04.407Z,13.64
2024-03-01T11:21:32.950Z,13.68
2024-03-01T11:24:08.724Z,13.73
2024-03-01T11:26:48.231Z,13.76
2024-03-01T11:29:30.789Z,13.71
2024-03-01T11:32:07.618Z,13.66
2024-03-01T11:35:04.131Z,13.66
2024-03-01T11:38:06.917Z,13.66
2024-03-01T11:40:53.947Z,13.66
2024-03-01T11:43:39.625Z,13.67
2024-03-01T11:46:41.223Z,13.65
2024-03-01T11:49:45.202Z,13.63
2024-03-01T11:52:22.190Z,13.58
2024-03-01T11:55:03.456Z,13.55
2024-03-01T11:57:39.686Z,13.53
2024-03-01T12:00:56.681Z,13.54
2024-03-01T12:03:45.671Z,13.50
2024-03-01T12:06:16.719Z,13.49
2024-03-01T12:09:04.037Z,13.52
2024-03-01T12:11:55.682Z,13.60
2024-03-01T12:14:32.160Z,13.72
2024-03-01T12:17:07.536Z,13.84
2024-03-01T12:19:50.231Z,14.00
2024-03-01T12:22:36.755Z,14.22
2024-03-01T12:25:05.588Z,14.47
2024-03-01T12:27:51.876Z,14.72
2024-03-01T12:30:31.281Z,15.05
2024-03-01T12:33:20.887Z,15.38
2024-03-01T12:35:51.506Z,15.64
2024-03-01T12:38:26.869Z,15.89
2024-03-01T12:41:30.962Z,16.12
2024-03-01T12:44:17.418Z,16.45
2024-03-01T12:47:11.654Z,16.73
2024-03-01T12:50:05.013Z,17.03
2024-03-01T12:53:11.586Z,17.36
2024-03-01T12:55:49.366Z,17.58
2024-03-01T12:58:55.439Z,17.68
2024-03-01T13:01:45.807Z,17.82
2024-03-01T13:04:22.844Z,17.96
2024-03-01T13:06:53.348Z,18.09
2024-03-01T13:09:32.245Z,18.14
2024-03-01T13:12:02.768Z,18.21
2024-03-01T13:14:42.855Z,18.28
2024-03-01T13:17:29.453Z,18.34
2024-03-01T13:20:31.816Z,18.32
2024-03-01T13:23:18.732Z,18.22
2024-03-01T13:26:06.974Z,18.02
2024-03-01T13:28:39.526Z,17.87
2024-03-01T13:31:14.757Z,17.71
2024-03-01T13:33:48.914Z,17.54
2024-03-01T13:36:27.425Z,17.34
2024-03-01T13:39:14.024Z,17.16
2024-03-01T13:42:08.921Z,16.89
2024-03-01T13:44:40.838Z,16.57
2024-03-01T13:47:22.709Z,16.43
2024-03-01T13:50:08.980Z,16.25
2024-03-01T13:52:39.979Z,16.10
2024-03-01T13:55:13.318Z,16.00
2024-03-01T13:57:48.344Z,15.91
2024-03-01T14:00:25.372Z,15.82
2024-03-01T14:02:54.976Z,15.77
2024-03-01T14:05:28.150Z,15.73
2024-03-01T14:08:02.333Z,15.72
2024-03-01T14:10:31.154Z,15.68
2024-03-01T14:12:59.627Z,15.68
2024-03-01T14:15:27.972Z,15.65
2024-03-01T14:17:56.136Z,15.58
2024-03-01T14:20:24.738Z,15.54
2024-03-01T14:22:57.318Z,15.57
2024-03-01T14:25:26.561Z,15.61
2024-03-01T14:27:56.129Z,15.62
2024-03-01T14:30:26.669Z,15.59
2024-03-01T14:33:10.063Z,15.50
2024-03-01T14:35:42.045Z,15.40
2024-03-01T14:38:17.901Z,15.29
2024-03-01T14:40:56.596Z,15.20
2024-03-01T14:43:25.697Z,15.14
2024-03-01T14:45:54.271Z,15.07
2024-03-01T14:48:29.551Z,15.01
2024-03-01T14:51:02.901Z,14.92
2024-03-01T14:53:39.168Z,14.82
2024-03-01T14:56:11.425Z,14.63
2024-03-01T14:58:43.103Z,14.47
2024-03-01T15:01:13.975Z,14.35
2024-03-01T15:03:42.512Z,14.23
2024-03-01T15:06:10.787Z,14.15
2024-03-01T15:08:41.920Z,14.10
2024-03-01T15:11:12.560Z,14.05
2024-03-01T15:13:44.887Z,14.02
2024-03-01T15:16:23.887Z,14.02
2024-03-01T15:18:57.450Z,14.00
2024-03-01T15:21:25.720Z,13.98
2024-03-01T15:23:57.375Z,13.96
2024-03-01T15:26:25.961Z,13.96
2024-03-01T15:28:54.158Z,13.95
2024-03-01T15:31:23.898Z,13.94
2024-03-01T15:33:52.108Z,13.93
2024-03-01T15:36:20.400Z,13.90
2024-03-01T15:38:48.975Z,13.87
2024-03-01T15:41:17.957Z,13.83
2024-03-01T15:43:47.506Z,13.76
2024-03-01T15:46:20.099Z,13.68
2024-03-01T15:48:48.416Z,13.61
2024-03-01T15:51:17.317Z,13.54
2024-03-01T15:53:45.684Z,13.46
2024-03-01T15:56:14.286Z,13.38
2024-03-01T15:58:42.697Z,13.29
2024-03-01T16:01:13.524Z,13.19
2024-03-01T16:03:41.860Z,13.08
2024-03-01T16:06:10.232Z,12.98
2024-03-01T16:08:40.211Z,12.87
2024-03-01T16:11:09.557Z,12.75
2024-03-01T16:13:39.682Z,12.63
2024-03-01T16:16:09.572Z,12.54
2024-03-01T16:18:38.783Z,12.45
2024-03-01T16:21:08.982Z,12.37
2024-03-01T16:23:42.256Z,12.29
2024-03-01T16:26:18.018Z,12.21
2024-03-01T16:28:52.385Z,12.12
2024-03-01T16:31:20.735Z,12.06
2024-03-01T16:33:49.426Z,12.00
2024-03-01T16:36:20.725Z,11.94
2024-03-01T16:38:49.731Z,11.87
2024-03-01T16:41:30.315Z,11.79
2024-03-01T16:43:59.961Z,11.71
2024-03-01T16:46:31.168Z,11.64
2024-03-01T16:49:01.513Z,11.58
2024-03-01T16:51:39.439Z,11.54
2024-03-01T16:54:25.284Z,11.48
2024-03-01T16:56:54.790Z,11.39
2024-03-01T16:59:23.056Z,11.36
2024-03-01T17:01:51.543Z,11.32
2024-03-01T17:04:20.198Z,11.30
2024-03-01T17:06:49.475Z,11.23
2024-03-01T17:09:21.430Z,11.18
2024-03-01T17:11:51.374Z,11.14
2024-03-01T17:14:20.509Z,11.10
2024-03-01T17:16:54.201Z,11.06
2024-03-01T17:19:28.604Z,11.03
2024-03-01T17:22:03.391Z,10.97
2024-03-01T17:24:31.966Z,10.92
2024-03-01T17:27:00.420Z,10.89
2024-03-01T17:29:28.685Z,10.86
2024-03-01T17:31:56.947Z,10.82
2024-03-01T17:34:25.270Z,10.80
2024-03-01T17:36:53.518Z,10.74
2024-03-01T17:39:21.877Z,10.69
2024-03-01T17:41:50.065Z,10.68
2024-03-01T17:44:18.222Z,10.76
2024-03-01T17:46:46.555Z,10.87
2024-03-01T17:49:15.011Z,10.96
2024-03-01T17:51:43.504Z,11.06
2024-03-01T17:54:12.976Z,11.17
2024-03-01T17:56:42.057Z,11.28
2024-03-01T17:59:10.225Z,11.39
2024-03-01T18:01:38.430Z,11.49
2024-03-01T18:04:06.820Z,11.62
2024-03-01T18:06:38.995Z,11.74
2024-03-01T18:09:07.273Z,11.86
2024-03-01T18:11:35.532Z,11.97
2024-03-01T18:14:04.892Z,12.09
2024-03-01T18:16:33.081Z,12.15
2024-03-01T18:19:01.345Z,12.19
2024-03-01T18:21:33.098Z,12.22
2024-03-01T18:24:01.681Z,12.25
2024-03-01T18:26:31.693Z,12.25
2024-03-01T18:29:00.173Z,12.24
2024-03-01T18:31:28.372Z,12.23
2024-03-01T18:33:57.145Z,12.20
2024-03-01T18:36:25.421Z,12.17
2024-03-01T18:38:53.517Z,12.11
2024-03-01T18:41:21.652Z,12.06
2024-03-01T18:43:53.309Z,12.00
2024-03-01T18:46:21.539Z,11.96
2024-03-01T18:48:51.391Z,11.92
2024-03-01T18:51:19.772Z,11.88
2024-03-01T18:53:49.071Z,11.83
2024-03-01T18:56:20.037Z,11.78
2024-03-01T18:58:48.410Z,11.72
2024-03-01T19:01:16.633Z,11.68
2024-03-01T19:03:45.105Z,11.61
2024-03-01T19:06:13.439Z,11.55
2024-03-01T19:08:41.585Z,11.49
2024-03-01T19:11:09.713Z,11.42
2024-03-01T19:13:39.480Z,11.36
2024-03-01T19:16:07.768Z,11.28
2024-03-01T19:18:36.032Z,11.22
2024-03-01T19:21:04.507Z,11.14
2024-03-01T19:23:33.520Z,11.07
2024-03-01T19:26:02.310Z,11.03
2024-03-01T19:28:30.913Z,10.98
2024-03-01T19:31:00.754Z,10.92
2024-03-01T19:33:29.050Z,10.87
2024-03-01T19:35:57.751Z,10.82
2024-03-01T19:38:26.614Z,10.77
2024-03-01T19:40:55.094Z,10.72
2024-03-01T19:43:24.282Z,10.67
2024-03-01T19:45:52.709Z,10.62
2024-03-01T19:48:22.585Z,10.58
2024-03-01T19:50:50.871Z,10.55
2024-03-01T19:53:19.341Z,10.50
2024-03-01T19:55:47.558Z,10.46
2024-03-01T19:58:16.664Z,10.45
2024-03-01T20:00:45.676Z,10.44
2024-03-01T20:03:16.140Z,10.43
2024-03-01T20:05:45.737Z,10.41
2024-03-01T20:08:14.318Z,10.38
2024-03-01T20:10:42.533Z,10.36
2024-03-01T20:13:11.070Z,10.34
2024-03-01T20:15:39.679Z,10.31
2024-03-01T20:18:09.697Z,10.27
2024-03-01T20:20:37.938Z,10.25
2024-03-01T20:23:06.532Z,10.23
2024-03-01T20:25:34.848Z,10.20
2024-03-01T20:28:06.503Z,10.17
2024-03-01T20:30:34.932Z,10.12
2024-03-01T20:33:03.277Z,10.07
2024-03-01T20:35:31.581Z,10.03
2024-03-01T20:37:59.753Z,9.98
2024-03-01T20:40:28.097Z,9.94
2024-03-01T20:42:57.232Z,9.90
2024-03-01T20:45:25.403Z,9.87
2024-03-01T20:47:53.696Z,9.85
2024-03-01T20:50:22.155Z,9.84
2024-03-01T20:52:51.016Z,9.82
2024-03-01T20:55:19.336Z,9.79
2024-03-01T20:57:47.632Z,9.76
2024-03-01T21:00:17.120Z,9.74
2024-03-01T21:02:45.890Z,9.72
2024-03-01T21:05:14.067Z,9.70
2024-03-01T21:07:42.775Z,9.70
2024-03-01T21:10:11.073Z,9.70
2024-03-01T21:12:39.699Z,9.71
2024-03-01T21:15:10.952Z,9.71
2024-03-01T21:17:39.522Z,9.72
2024-03-01T21:20:11.791Z,9.72
2024-03-01T21:25:15.023Z,9.72
2024-03-01T21:27:43.884Z,9.73
2024-03-01T21:30:13.604Z,9.73
2024-03-01T21:32:41.874Z,9.73
2024-03-01T21:35:10.158Z,9.73
2024-03-01T21:37:38.544Z,9.73
2024-03-01T21:40:10.816Z,9.74
2024-03-01T21:42:38.986Z,9.75
2024-03-01T21:45:08.161Z,9.75
2024-03-01T21:47:36.678Z,9.75
2024-03-01T21:50:05.336Z,9.76
2024-03-01T21:52:33.502Z,9.75
2024-03-01T21:55:01.777Z,9.73
2024-03-01T21:57:30.643Z,9.71
2024-03-01T21:59:58.846Z,9.70
2024-03-01T22:02:27.326Z,9.69
2024-03-01T22:04:59.859Z,9.67
2024-03-01T22:07:29.616Z,9.66
2024-03-01T22:09:59.853Z,9.65
2024-03-01T22:12:28.320Z,9.64
2024-03-01T22:14:56.477Z,9.63
2024-03-01T22:17:25.759Z,9.64
2024-03-01T22:19:54.159Z,9.65
2024-03-01T22:22:22.328Z,9.66
2024-03-01T22:24:50.607Z,9.67
2024-03-01T22:27:18.986Z,9.67
2024-03-01T22:29:50.153Z,9.67
2024-03-01T22:32:19.124Z,9.67
2024-03-01T22:34:47.381Z,9.65
2024-03-01T22:37:16.377Z,9.66
2024-03-01T22:39:48.858Z,9.66
2024-03-01T22:42:19.318Z,9.67
2024-03-01T22:44:47.551Z,9.66
2024-03-01T22:47:16.247Z,9.65
2024-03-01T22:49:45.387Z,9.65
2024-03-01T22:52:15.567Z,9.65
2024-03-01T22:54:43.871Z,9.65
2024-03-01T22:57:15.592Z,9.65
2024-03-01T23:00:27.416Z,9.65
2024-03-01T23:02:56.684Z,9.65
2024-03-01T23:05:47.914Z,9.64
2024-03-01T23:08:42.619Z,9.64
2024-03-01T23:11:37.839Z,9.64
2024-03-01T23:14:29.619Z,9.64
2024-03-01T23:16:58.093Z,9.65
2024-03-01T23:19:28.120Z,9.65
2024-03-01T23:21:57.472Z,9.66
2024-03-01T23:24:25.728Z,9.68
2024-03-01T23:26:58.608Z,9.69
2024-03-01T23:29:26.838Z,9.70
2024-03-01T23:31:55.218Z,9.71
2024-03-01T23:34:23.400Z,9.71
2024-03-01T23:36:51.576Z,9.72
2024-03-01T23:39:19.912Z,9.72
2024-03-01T23:41:48.229Z,9.72
2024-03-01T23:44:16.392Z,9.73
2024-03-01T23:46:44.659Z,9.75
2024-03-01T23:49:13.760Z,9.76
2024-03-01T23:51:42.053Z,9.77
2024-03-01T23:54:10.439Z,9.77
2024-03-01T23:56:38.586Z,9.76
2024-03-01T23:59:09.104Z,9.75
